EDVK METAR and TAF | Updated Today

EDVK METAR

Kassel-Calden Airport

Observation time: 17 min. ago

EDVK 061950Z AUTO 23005KT 9999 // NCD 09/05 Q1030

Need help? Read our tutorial on how to read METARs or read the parsed version below.

Kassel-Calden Airport (EDVK) METAR

  • Weather conditions on Thu, 06 Oct 2022 19:50:00 +0000 (17 min. ago):
  • Present conditions: Dry
  • Clouds: Nil cloud detected
  • Visibility: Greater than 10 km
  • Wind: 230 degrees at 5 knots
  • Temperature: 9 celsius
  • Dew point: 5 celsius
  • Pressure: 1030 millibars
  • Remarks: None


Useful to know...

EDVK TAF

Kassel-Calden Airport

TAF EDVK 061700Z 0618/0703 VRB03KT CAVOK
Observation time: 3:07 hr. ago
Need help? Read our tutorial on how to read TAFs or read the parsed version below.

Parsed version of TAF for Kassel-Calden Airport (EDVK)

  • From 06 October at 18:00 UTC, to day 07 of the month at 03:00 UTC
  • Visibility: Greater than 10 km
  • Wind: Variable at 3